Huvudsida
METAR-TAF:

METAR-TAF

Flygplatser :

Capo Mele

Andora, Italien

latitud: 43-57N, longitud: 008-10E, höjd: 220 m

Aktuellt väderrapport

Denna rapport gjordes för 56 minuter sedan, klockan 20:55 UTC
Vind 5 kt från nord/nordost
Temperatur 19°C
Fuktighet 60%
Tryck 1027 hPa
Sikt 10 km eller mer
Inga moln under 1 500 m eller inga cumulonimbus

METAR: LIMU 272055Z 03005KT CAVOK 19/11 Q1027 RMK SKC QUK / QUL / VIS MAR 30 KM VIS MIN 9999

Tid: 23:51 (21:51 UTC)


TAF: saknas

Aktuella väderrapporter och prognoser från 4000 flygplatser (METAR- och TAF-rapporter).

De tillgängliga stationerna syns som gula och röda prickar på kartan.

För musen över prickarna för att se namnen på stationerna.

Klicka sedan för att få väderrapporter och prognoser.

För att ändra kartan: Klicka på de gröna knapparna med ett svart kors på för att zooma in; den gröna knappen med ett streck på för att zooma ut; eller på de gröna pilarna för angränsande kartor.


METAR-TAF: